Cloud cover More information Parkstad Weather Satellite


Precipitateradar More information Parkstad Rain Snow Radar


Thunderstorms More information Parkstad Lighntning


24/7 Weathercamera More information Parkstad Weathercam


Natural Fire Risk
CBI






The weather does not pose an immediate danger in Parkstad.    There are no Weather-warnings

Nearby METAR Reports

   
EHBK - Beek Nederland
Updated: 10-12-2019 11:25
Partly Cloudy  
Partly Cloudy  
   Wind: SSW 22.2 km/h
Wind: SSW 22.2 km/h
Temperature: 4°C
Wind Chill: -1°C
Dew Point: 2°C
Humidity: 87%
Barometer: 1025 hPa
Satellite images: Partly Cloudy
Visibility: More than 10 km
Cloud details: Partly Cloudy
EHBK 101025Z AUTO 20012KT 9999 NSC 04/02 Q1025 NOSIG
EHBK - Maastricht Nederland
Updated: 10-12-2019 11:25
Partly Cloudy  
Partly Cloudy  
   Wind: SSW 22.2 km/h
Wind: SSW 22.2 km/h
Temperature: 4°C
Wind Chill: -1°C
Dew Point: 2°C
Humidity: 87%
Barometer: 1025 hPa
Satellite images: Partly Cloudy
Visibility: More than 10 km
Cloud details: Partly Cloudy
EHBK 101025Z AUTO 20012KT 9999 NSC 04/02 Q1025 NOSIG
EBLG - Liège België
Updated: 10-12-2019 11:20
Clear  
Clear  
   Wind: South 18.5 km/h
Wind: South 18.5 km/h
Temperature: 3°C
Wind Chill: -1°C
Dew Point: 1°C
Humidity: 87%
Barometer: 1026 hPa
Visibility: More than 10 km
Cloud details: Clear
EBLG 101020Z 18010KT CAVOK 03/01 Q1026 NOSIG
EDDK - Köln/Bonn Duitsland
Updated: 10-12-2019 11:20
Clear  
Clear  
   Wind: South 11.1 km/h
Wind: South 11.1 km/h
Temperature: 5°C
Wind Chill: 2°C
Dew Point: 2°C
Humidity: 81%
Barometer: 1026 hPa
Visibility: More than 10 km
Cloud details: Clear
EDDK 101020Z 18006KT 150V210 CAVOK 05/02 Q1026 NOSIG
EDDL - Düsseldorf Duitsland
Updated: 10-12-2019 11:20
Few Clouds  
Few Clouds  
   Wind: South 18.5 km/h
Wind: South 18.5 km/h
Temperature: 4°C
Wind Chill: 0°C
Dew Point: 2°C
Humidity: 87%
Barometer: 1025 hPa
Satellite images: Few Clouds
Visibility: More than 10 km
Cloud details: Few Clouds 366 m
EDDL 101020Z 19010KT 9999 FEW012 04/02 Q1025 NOSIG
EHEH - Eindhoven Nederland
Updated: 10-12-2019 11:25
Few Clouds  
Few Clouds  
   Wind: SSW 18.5 km/h
Wind: SSW 18.5 km/h
Temperature: 5°C
Wind Chill: 1°C
Dew Point: 1°C
Humidity: 76%
Barometer: 1025 hPa
Satellite images: Few Clouds
Visibility: More than 10 km
Cloud details: Few Clouds 7925 m
EHEH 101025Z AUTO 20010KT 170V230 9999 FEW260 05/01 Q1025 BLU 21010KT CAVOK
ELLX - Luxemburg Luxemburg
Updated: 10-12-2019 11:20
Few Clouds  
Few Clouds  
   Wind: SW 11.1 km/h
Wind: SW 11.1 km/h
Temperature: 3°C
Wind Chill: 0°C
Dew Point: 1°C
Humidity: 87%
Barometer: 1027 hPa
Satellite images: Few Clouds
Visibility: More than 10 km
Cloud details: Few Clouds 244 m
ELLX 101020Z 22006KT 9999 FEW008 03/01 Q1027 TEMPO BKN008
EGLL - London England
Updated: 10-12-2019 11:20
Overcast  
Overcast  
   Wind: South 25.9 km/h<br />Gust to 25.9 km/h
Wind: South 25.9 km/h
Gust to 25.9 km/h
Temperature: 9°C
Wind Chill: 6°C
Dew Point: 7°C
Humidity: 87%
Barometer: 1016 hPa
Satellite images: Overcast
Visibility: More than 10 km
Cloud details: Overcast 518 m
EGLL 101020Z AUTO 19014G25KT 9999 OVC017 09/07 Q1016 TEMPO RA
EBAW - Antwerpen België
Updated: 10-12-2019 11:20
Clear  
Clear  
   Wind: SSW 20.4 km/h
Wind: SSW 20.4 km/h
Temperature: 5°C
Wind Chill: 1°C
Dew Point: 0°C
Humidity: 70%
Barometer: 1024 hPa
Visibility: More than 10 km
Cloud details: Clear
EBAW 101020Z 20011KT 160V230 CAVOK 05/00 Q1024 NOSIG
EBOS - Oostende België
Updated: 10-12-2019 11:20
Clear  
Clear  
   Wind: South 20.4 km/h
Wind: South 20.4 km/h
Temperature: 4°C
Wind Chill: 0°C
Dew Point: 1°C
Humidity: 81%
Barometer: 1023 hPa
Visibility: More than 10 km
Cloud details: Clear
EBOS 101020Z 19011KT CAVOK 04/01 Q1023 TEMPO 19015G25KT
LEAL - La Nucia Spanje
Updated: 10-12-2019 11:30
Clear  
Clear  
   Wind: West 5.6 km/h
Wind: West 5.6 km/h
Temperature: 17°C
Dew Point: 3°C
Humidity: 39%
Barometer: 1026 hPa
Visibility: More than 10 km
Cloud details: Clear
LEAL 101030Z 27003KT 240V320 CAVOK 17/03 Q1026 NOSIG
TNCA - Oranjestad Aruba
Updated: 10-12-2019 11:00
Few Clouds  
Few Clouds  
   Wind: East 33.3 km/h
Wind: East 33.3 km/h
Temperature: 28°C
Heat Index: 31°C
Dew Point: 22°C
Humidity: 70%
Barometer: 1011 hPa
Satellite images: Few Clouds
Visibility: More than 10 km
Cloud details: Few Clouds 549 m
TNCA 101000Z 09018KT 9999 FEW018 28/22 Q1011 NOSIG
TNCC - Willemstad Curacao
Updated: 10-12-2019 11:00
Few Clouds  
Few Clouds  
   Wind: East 27.8 km/h
Wind: East 27.8 km/h
Temperature: 27°C
Heat Index: 29°C
Dew Point: 22°C
Humidity: 74%
Barometer: 1012 hPa
Satellite images: Few Clouds
Visibility: More than 10 km
Cloud details: Few Clouds 549 m
TNCC 101000Z 10015KT 9999 FEW018 27/22 Q1012 NOSIG
MTPP - Port au Prince Haitië
Updated: 10-12-2019 10:59
  
  
   Wind: ESE 11.1 km/h
Wind: ESE 11.1 km/h
Temperature: 23°C
Dew Point: 20°C
Humidity: 83%
Barometer: 1015 hPa
Visibility: 8 km
MTPP 100959Z AUTO 11006KT 8000 ////// 23/20 Q1015 A2997 NOSIG
ENVA - Trondheim Noorwegen
Updated: 10-12-2019 11:50
Clear  
Clear  
   Wind: SE 22.2 km/h
Wind: SE 22.2 km/h
Temperature: -2°C
Wind Chill: -8°C
Dew Point: -6°C
Humidity: 74%
Barometer: 1006 hPa
Visibility: More than 10 km
Cloud details: Clear
ENVA 101050Z 13012KT CAVOK M02/M06 Q1006 NOSIG RMK WIND 670FT 15016KT
ENBO - Bodø Noorwegen
Updated: 10-12-2019 11:50
Nearby Showers, Few Clouds  
Nearby Showers, Few Clouds  
   Wind: ESE 24.1 km/h
Wind: ESE 24.1 km/h
Temperature: -3°C
Wind Chill: -9°C
Dew Point: -4°C
Humidity: 93%
Barometer: 1005 hPa
Satellite images: Few Clouds
Visibility: More than 10 km
Cloud details: Few Clouds 244 m,
Few Clouds 457 m
ENBO 101050Z 11013KT 9999 VCSH FEW008 FEW015CB M03/M04 Q1005 TEMPO 1200 SHSNGS VV010
ETNG - Geilenkirchen Duitsland
Updated: 10-12-2019 11:50
Clear  
Clear  
   Wind: SSW 11.1 km/h
Wind: SSW 11.1 km/h
Temperature: 6°C
Wind Chill: 4°C
Dew Point: 3°C
Humidity: 81%
Barometer: 1025 hPa
Visibility: More than 10 km
Cloud details: Clear
ETNG 101050Z 20006KT CAVOK 06/03 Q1025 NOSIG
 

Script developed by  Saratoga-weather.org Adapted for the template by  Weerstation Leuven

You find our weather info also at:

Het Weer Aktueel

WOW Nederland KNMI

Vereniging voor Weerkunde en Klimatologie

UK Met Office Weather Observation Website (WOW)

WeatherCloud

Weather Underground

Awekas

Weatherlink IP

HAMweather, WeatherForYou, PWS Weather

Citizen Weather Observer Program (CWOP)

Equipment we use:

Hardware supplier
Weerhuisje

Weather-station
Vantage Pro2+ UV

WeatherServer's
alix3d2 & wl330n

WeatherProgram's
Smartbedded

Satellite NOAA's
WRX137 & KX137

Satellite Eumetsat
Ayecka SR1 & Triax

Lightning detector
Boltek StormTracker

Provider
F-Service

Weerhuisje

Vantage Pro2+ UV

alix3d2 & wl330n

Smartbedded

WRX137 & KX137

Ayecka SR1 & Triax

Boltek StormTracker

F-Service